Sea Success — VRS4325 — position and weather

sailwx.info

Track history (hours):
 
Tides and Currents Weather Stations Pressure Air Temp Water Temp Dewpoint Dewpoint Depression Visibility Wind Speed Wind Dir Waves Ship Positions

Sea Success

Last reported at 2015-Aug-27 13:32 UTC. Time now 2015-Aug-27 20:42 UTC.
Position N 22°17' E 114°06'.

Length 27 m.

Type: High speed craft. MMSI: 477995071.

Date/timePositionNaut miles runAvg speedWind from/ knotsBaromVisibWave heightAir tempDewpointWater temp
2015-Aug-27 13:32N 22°17' E 114°06'3 2.7
2015-Aug-27 12:14N 22°16' E 114°02'710.7
2015-Aug-27 11:33N 22°17' E 114°10'4 3.1
2015-Aug-27 10:18N 22°17' E 114°05'3 4.5
2015-Aug-27 09:33N 22°18' E 114°09'0 0.4
2015-Aug-27 08:33N 22°18' E 114°09'0 0.0
2015-Aug-27 07:33N 22°18' E 114°09'0 0.0
2015-Aug-27 06:33N 22°18' E 114°09'0 0.0
2015-Aug-27 05:33N 22°18' E 114°09'0 0.0
2015-Aug-27 04:33N 22°18' E 114°09'0 0.0
2015-Aug-27 03:33N 22°18' E 114°09'1 1.0
2015-Aug-27 02:33N 22°17' E 114°10'5 3.6
2015-Aug-27 01:17N 22°17' E 114°05'5 2.6
2015-Aug-26 23:34N 22°17' E 114°10'1 0.5
2015-Aug-26 22:33N 22°18' E 114°09'3 0.3
2015-Aug-26 13:28N 22°17' E 114°06'5 3.7
2015-Aug-26 12:10N 22°16' E 114°02'812.3
2015-Aug-26 11:33N 22°17' E 114°10'7 6.0
2015-Aug-26 10:25N 22°17' E 114°02'7 7.7
2015-Aug-26 09:33N 22°17' E 114°09'0 0.2
2015-Aug-26 08:33N 22°18' E 114°09'8 3.5
2015-Aug-26 06:22N 22°16' E 114°02'8 9.3
2015-Aug-26 05:33N 22°17' E 114°10'0 0.0
2015-Aug-26 02:33N 22°17' E 114°10'8 6.5
2015-Aug-26 01:23N 22°16' E 114°02'1 1.1
2015-Aug-26 00:12N 22°17' E 114°02'710.8
2015-Aug-25 23:33N 22°17' E 114°10'5 4.2
2015-Aug-25 22:24N 22°17' E 114°04'1 0.1
2015-Aug-25 13:32N 22°17' E 114°05'3 2.5
2015-Aug-25 12:16N 22°16' E 114°02'710.6
2015-Aug-25 11:33N 22°17' E 114°10'7 6.0
2015-Aug-25 10:25N 22°17' E 114°02'6 7.3
2015-Aug-25 09:33N 22°18' E 114°09'1 0.8
2015-Aug-25 08:33N 22°17' E 114°10'0 0.1
2015-Aug-25 05:33N 22°17' E 114°10'0 0.0
2015-Aug-25 02:33N 22°17' E 114°10'8 6.5
2015-Aug-25 01:24N 22°16' E 114°02'1 1.0
2015-Aug-25 00:11N 22°17' E 114°02'710.8
2015-Aug-24 23:33N 22°17' E 114°10'1 0.7
2015-Aug-24 22:33N 22°18' E 114°09'3 0.4
2015-Aug-24 13:30N 22°17' E 114°05'4 2.1
2015-Aug-24 11:33N 22°17' E 114°10'7 5.8
2015-Aug-24 10:23N 22°17' E 114°02'7 8.6
2015-Aug-24 09:33N 22°17' E 114°10'0 0.5
2015-Aug-24 08:33N 22°18' E 114°09'0 0.1
2015-Aug-24 05:33N 22°17' E 114°10'5 2.0
2015-Aug-24 03:03N 22°17' E 114°04'5 9.8
2015-Aug-24 02:33N 22°17' E 114°10'7 6.2
2015-Aug-24 01:21N 22°16' E 114°02'2 2.1
2015-Aug-24 00:31N 22°17' E 114°03'6 6.0
2015-Aug-23 23:33N 22°17' E 114°10'5 4.3
2015-Aug-23 22:25N 22°17' E 114°04'2 0.2
2015-Aug-23 14:06N 22°17' E 114°02'5 9.8
2015-Aug-23 13:33N 22°17' E 114°08'1 1.3
2015-Aug-23 12:33N 22°17' E 114°06'5 3.5
2015-Aug-23 11:15N 22°16' E 114°02'710.7
2015-Aug-23 10:33N 22°17' E 114°10'7 6.1
2015-Aug-23 09:26N 22°17' E 114°02'7 7.7
2015-Aug-23 08:34N 22°18' E 114°09'1 0.9
2015-Aug-23 07:33N 22°18' E 114°08'1 1.0
2015-Aug-23 06:33N 22°17' E 114°09'0 0.0
2015-Aug-23 05:33N 22°17' E 114°09'7 6.0
2015-Aug-23 04:26N 22°17' E 114°02'6 6.6
2015-Aug-23 03:33N 22°18' E 114°08'2 1.9
2015-Aug-23 02:33N 22°17' E 114°06'3 3.0
2015-Aug-23 01:33N 22°18' E 114°09'0 0.0
2015-Aug-23 00:33N 22°18' E 114°09'1 1.4
2015-Aug-22 23:33N 22°20' E 114°09'5 0.5
2015-Aug-22 13:33N 22°17' E 114°05'5 2.4
2015-Aug-22 11:33N 22°17' E 114°10'7 6.0
2015-Aug-22 10:25N 22°17' E 114°02'0 0.0
2015-Aug-22 09:11N 22°17' E 114°02'711.1
2015-Aug-22 08:33N 22°17' E 114°10'7 3.2
2015-Aug-22 06:18N 22°17' E 114°02'7 9.5
2015-Aug-22 05:33N 22°17' E 114°10'0 0.0
2015-Aug-22 02:33N 22°17' E 114°10'3 1.3
2015-Aug-22 00:33N 22°17' E 114°07'3 2.7
2015-Aug-21 23:33N 22°17' E 114°10'5 4.6
2015-Aug-21 22:33N 22°17' E 114°05'0 0.0
2015-Aug-21 13:33N 22°17' E 114°05'3 2.2
2015-Aug-21 12:10N 22°16' E 114°02'812.4
2015-Aug-21 11:33N 22°17' E 114°10'3 2.6
2015-Aug-21 10:16N 22°17' E 114°06'3 3.0
2015-Aug-21 09:07N 22°17' E 114°02'711.8
2015-Aug-21 08:33N 22°17' E 114°10'0 0.0
2015-Aug-21 05:33N 22°17' E 114°10'7 2.8
2015-Aug-21 03:08N 22°17' E 114°02'712.0
2015-Aug-21 02:33N 22°17' E 114°10'8 6.4
2015-Aug-21 01:22N 22°16' E 114°02'1 1.1
2015-Aug-21 00:08N 22°17' E 114°02'711.9
2015-Aug-20 23:34N 22°17' E 114°10'2 2.3
2015-Aug-20 22:33N 22°17' E 114°07'1 0.1
2015-Aug-20 13:30N 22°17' E 114°06'3 1.7
2015-Aug-20 11:33N 22°17' E 114°10'7 7.3
2015-Aug-20 10:33N 22°16' E 114°02'1 0.5
2015-Aug-20 09:09N 22°17' E 114°02'711.8
2015-Aug-20 08:33N 22°17' E 114°10'1 1.0
2015-Aug-20 07:33N 22°18' E 114°09'0 0.0
2015-Aug-20 06:33N 22°18' E 114°09'0 0.0
2015-Aug-20 05:33N 22°18' E 114°09'0 0.0
2015-Aug-20 04:32N 22°18' E 114°09'0 0.0
2015-Aug-20 03:33N 22°18' E 114°09'0 0.5
2015-Aug-20 02:33N 22°18' E 114°09'3 2.2
2015-Aug-20 01:09N 22°17' E 114°06'3 3.5
2015-Aug-20 00:09N 22°17' E 114°02'711.6
2015-Aug-19 23:33N 22°17' E 114°10'5 4.2
2015-Aug-19 22:23N 22°17' E 114°04'1 0.1
2015-Aug-19 13:32N 22°17' E 114°05'4 2.1
2015-Aug-19 11:33N 22°17' E 114°10'7 6.1
2015-Aug-19 10:25N 22°17' E 114°02'7 7.6
2015-Aug-19 09:33N 22°18' E 114°09'0 0.2
2015-Aug-19 08:33N 22°18' E 114°09'1 0.3
2015-Aug-19 05:33N 22°17' E 114°10'0 0.0
2015-Aug-19 02:32N 22°17' E 114°10'5 3.4
2015-Aug-19 01:11N 22°17' E 114°05'5 2.8
2015-Aug-18 23:33N 22°17' E 114°10'4 3.4
2015-Aug-18 22:29N 22°17' E 114°06'0 0.0
2015-Aug-18 13:32N 22°17' E 114°05'4 2.0
2015-Aug-18 11:33N 22°17' E 114°10'3 2.7
2015-Aug-18 10:18N 22°17' E 114°06'3 4.7
2015-Aug-18 09:33N 22°19' E 114°09'2 1.6
2015-Aug-18 08:33N 22°17' E 114°10'0 0.0
2015-Aug-18 07:33N 22°17' E 114°10'  
Track history (hours):
 
Tides and Currents Weather Stations Pressure Air Temp Water Temp Dewpoint Dewpoint Depression Visibility Wind Speed Wind Dir Waves Ship Positions

Sea Success

Last reported at 2015-Aug-27 13:32 UTC. Time now 2015-Aug-27 20:42 UTC.
Position N 22°17' E 114°06'.

Length 27 m.

Type: High speed craft. MMSI: 477995071.

Date/timePositionNaut miles runAvg speedWind from/ knotsBaromVisibWave heightAir tempDewpointWater temp
2015-Aug-27 13:32N 22°17' E 114°06'3 2.7
2015-Aug-27 12:14N 22°16' E 114°02'710.7
2015-Aug-27 11:33N 22°17' E 114°10'4 3.1
2015-Aug-27 10:18N 22°17' E 114°05'3 4.5
2015-Aug-27 09:33N 22°18' E 114°09'0 0.4
2015-Aug-27 08:33N 22°18' E 114°09'0 0.0
2015-Aug-27 07:33N 22°18' E 114°09'0 0.0
2015-Aug-27 06:33N 22°18' E 114°09'0 0.0
2015-Aug-27 05:33N 22°18' E 114°09'0 0.0
2015-Aug-27 04:33N 22°18' E 114°09'0 0.0
2015-Aug-27 03:33N 22°18' E 114°09'1 1.0
2015-Aug-27 02:33N 22°17' E 114°10'5 3.6
2015-Aug-27 01:17N 22°17' E 114°05'5 2.6
2015-Aug-26 23:34N 22°17' E 114°10'1 0.5
2015-Aug-26 22:33N 22°18' E 114°09'3 0.3
2015-Aug-26 13:28N 22°17' E 114°06'5 3.7
2015-Aug-26 12:10N 22°16' E 114°02'812.3
2015-Aug-26 11:33N 22°17' E 114°10'7 6.0
2015-Aug-26 10:25N 22°17' E 114°02'7 7.7
2015-Aug-26 09:33N 22°17' E 114°09'0 0.2
2015-Aug-26 08:33N 22°18' E 114°09'8 3.5
2015-Aug-26 06:22N 22°16' E 114°02'8 9.3
2015-Aug-26 05:33N 22°17' E 114°10'0 0.0
2015-Aug-26 02:33N 22°17' E 114°10'8 6.5
2015-Aug-26 01:23N 22°16' E 114°02'1 1.1
2015-Aug-26 00:12N 22°17' E 114°02'710.8
2015-Aug-25 23:33N 22°17' E 114°10'5 4.2
2015-Aug-25 22:24N 22°17' E 114°04'1 0.1
2015-Aug-25 13:32N 22°17' E 114°05'3 2.5
2015-Aug-25 12:16N 22°16' E 114°02'710.6
2015-Aug-25 11:33N 22°17' E 114°10'7 6.0
2015-Aug-25 10:25N 22°17' E 114°02'6 7.3
2015-Aug-25 09:33N 22°18' E 114°09'1 0.8
2015-Aug-25 08:33N 22°17' E 114°10'0 0.1
2015-Aug-25 05:33N 22°17' E 114°10'0 0.0
2015-Aug-25 02:33N 22°17' E 114°10'8 6.5
2015-Aug-25 01:24N 22°16' E 114°02'1 1.0
2015-Aug-25 00:11N 22°17' E 114°02'710.8
2015-Aug-24 23:33N 22°17' E 114°10'1 0.7
2015-Aug-24 22:33N 22°18' E 114°09'3 0.4
2015-Aug-24 13:30N 22°17' E 114°05'4 2.1
2015-Aug-24 11:33N 22°17' E 114°10'7 5.8
2015-Aug-24 10:23N 22°17' E 114°02'7 8.6
2015-Aug-24 09:33N 22°17' E 114°10'0 0.5
2015-Aug-24 08:33N 22°18' E 114°09'0 0.1
2015-Aug-24 05:33N 22°17' E 114°10'5 2.0
2015-Aug-24 03:03N 22°17' E 114°04'5 9.8
2015-Aug-24 02:33N 22°17' E 114°10'7 6.2
2015-Aug-24 01:21N 22°16' E 114°02'2 2.1
2015-Aug-24 00:31N 22°17' E 114°03'6 6.0
2015-Aug-23 23:33N 22°17' E 114°10'5 4.3
2015-Aug-23 22:25N 22°17' E 114°04'2 0.2
2015-Aug-23 14:06N 22°17' E 114°02'5 9.8
2015-Aug-23 13:33N 22°17' E 114°08'1 1.3
2015-Aug-23 12:33N 22°17' E 114°06'5 3.5
2015-Aug-23 11:15N 22°16' E 114°02'710.7
2015-Aug-23 10:33N 22°17' E 114°10'7 6.1
2015-Aug-23 09:26N 22°17' E 114°02'7 7.7
2015-Aug-23 08:34N 22°18' E 114°09'1 0.9
2015-Aug-23 07:33N 22°18' E 114°08'1 1.0
2015-Aug-23 06:33N 22°17' E 114°09'0 0.0
2015-Aug-23 05:33N 22°17' E 114°09'7 6.0
2015-Aug-23 04:26N 22°17' E 114°02'6 6.6
2015-Aug-23 03:33N 22°18' E 114°08'2 1.9
2015-Aug-23 02:33N 22°17' E 114°06'3 3.0
2015-Aug-23 01:33N 22°18' E 114°09'0 0.0
2015-Aug-23 00:33N 22°18' E 114°09'1 1.4
2015-Aug-22 23:33N 22°20' E 114°09'5 0.5
2015-Aug-22 13:33N 22°17' E 114°05'5 2.4
2015-Aug-22 11:33N 22°17' E 114°10'7 6.0
2015-Aug-22 10:25N 22°17' E 114°02'0 0.0
2015-Aug-22 09:11N 22°17' E 114°02'711.1
2015-Aug-22 08:33N 22°17' E 114°10'7 3.2
2015-Aug-22 06:18N 22°17' E 114°02'7 9.5
2015-Aug-22 05:33N 22°17' E 114°10'0 0.0
2015-Aug-22 02:33N 22°17' E 114°10'3 1.3
2015-Aug-22 00:33N 22°17' E 114°07'3 2.7
2015-Aug-21 23:33N 22°17' E 114°10'5 4.6
2015-Aug-21 22:33N 22°17' E 114°05'0 0.0
2015-Aug-21 13:33N 22°17' E 114°05'3 2.2
2015-Aug-21 12:10N 22°16' E 114°02'812.4
2015-Aug-21 11:33N 22°17' E 114°10'3 2.6
2015-Aug-21 10:16N 22°17' E 114°06'3 3.0
2015-Aug-21 09:07N 22°17' E 114°02'711.8
2015-Aug-21 08:33N 22°17' E 114°10'0 0.0
2015-Aug-21 05:33N 22°17' E 114°10'7 2.8
2015-Aug-21 03:08N 22°17' E 114°02'712.0
2015-Aug-21 02:33N 22°17' E 114°10'8 6.4
2015-Aug-21 01:22N 22°16' E 114°02'1 1.1
2015-Aug-21 00:08N 22°17' E 114°02'711.9
2015-Aug-20 23:34N 22°17' E 114°10'2 2.3
2015-Aug-20 22:33N 22°17' E 114°07'1 0.1
2015-Aug-20 13:30N 22°17' E 114°06'3 1.7
2015-Aug-20 11:33N 22°17' E 114°10'7 7.3
2015-Aug-20 10:33N 22°16' E 114°02'1 0.5
2015-Aug-20 09:09N 22°17' E 114°02'711.8
2015-Aug-20 08:33N 22°17' E 114°10'1 1.0
2015-Aug-20 07:33N 22°18' E 114°09'0 0.0
2015-Aug-20 06:33N 22°18' E 114°09'0 0.0
2015-Aug-20 05:33N 22°18' E 114°09'0 0.0
2015-Aug-20 04:32N 22°18' E 114°09'0 0.0
2015-Aug-20 03:33N 22°18' E 114°09'0 0.5
2015-Aug-20 02:33N 22°18' E 114°09'3 2.2
2015-Aug-20 01:09N 22°17' E 114°06'3 3.5
2015-Aug-20 00:09N 22°17' E 114°02'711.6
2015-Aug-19 23:33N 22°17' E 114°10'5 4.2
2015-Aug-19 22:23N 22°17' E 114°04'1 0.1
2015-Aug-19 13:32N 22°17' E 114°05'4 2.1
2015-Aug-19 11:33N 22°17' E 114°10'7 6.1
2015-Aug-19 10:25N 22°17' E 114°02'7 7.6
2015-Aug-19 09:33N 22°18' E 114°09'0 0.2
2015-Aug-19 08:33N 22°18' E 114°09'1 0.3
2015-Aug-19 05:33N 22°17' E 114°10'0 0.0
2015-Aug-19 02:32N 22°17' E 114°10'5 3.4
2015-Aug-19 01:11N 22°17' E 114°05'5 2.8
2015-Aug-18 23:33N 22°17' E 114°10'4 3.4
2015-Aug-18 22:29N 22°17' E 114°06'0 0.0
2015-Aug-18 13:32N 22°17' E 114°05'4 2.0
2015-Aug-18 11:33N 22°17' E 114°10'3 2.7
2015-Aug-18 10:18N 22°17' E 114°06'3 4.7
2015-Aug-18 09:33N 22°19' E 114°09'2 1.6
2015-Aug-18 08:33N 22°17' E 114°10'0 0.0
2015-Aug-18 07:33N 22°17' E 114°10'  

Dump ship's entire track history